Terminal Aerodrome Forecast
Issued by NWS

Home | Current Version | Previous Version | Text Only | Print | Product List | Glossary On
Versions: 1 2 3 4 5 6 7 8 9 10 11 12 13 14
000
FTUS44 KOUN 292330
TAFCSM
TAF
KCSM 292330Z 3000/3024 08006KT P6SM SCT080 BKN250
     FM300300 10006KT P6SM BKN080
     FM300800 13008KT P6SM VCTS BKN080CB
      TEMPO 3009/3012 5SM -TSRA BKN050CB
     FM301200 20014KT P6SM SCT250=

USA.gov is the U.S. government's official web portal to all federal, state and local government web resources and services.